Ms Simon — A8DU9 — position and weather

sailwx.info

Track history (hours):
 
Tides and Currents Weather Stations Pressure Air Temp Water Temp Dewpoint Dewpoint Depression Visibility Wind Speed Wind Dir Waves Ship Positions

Ms Simon

Last reported at 2017-Oct-18 09:29 UTC. Time now 2017-Oct-18 09:41 UTC.
Position N 52°31' E 004°17'.

Length 175 m; draft 7.6 m.

Type: Tanker. MMSI: 636091485.

Date/timePositionNaut miles runAvg speedWind from/ knotsBaromVisibWave heightAir tempDewpointWater temp
2017-Oct-18 09:29N 52°31' E 004°17'0 0.0
2017-Oct-18 08:53N 52°31' E 004°17'0 0.1
2017-Oct-18 08:29N 52°31' E 004°17'0 0.0
2017-Oct-18 07:59N 52°31' E 004°17'0 0.0
2017-Oct-18 07:29N 52°31' E 004°17'0 0.0
2017-Oct-18 06:59N 52°31' E 004°17'0 0.1
2017-Oct-18 06:23N 52°31' E 004°17'0 0.3
2017-Oct-18 06:00N 52°32' E 004°17'0 0.7
2017-Oct-18 05:30N 52°32' E 004°17'4 7.6
2017-Oct-18 05:00N 52°29' E 004°13'  
2017-Oct-15 22:40N 52°37' E 002°52'0 0.0
2017-Oct-15 22:28N 52°37' E 002°52'0 0.0
2017-Oct-15 21:58N 52°37' E 002°52'0 0.0
2017-Oct-15 10:04N 52°37' E 002°52'0 2.2
2017-Oct-15 10:00N 52°37' E 002°52'  
2017-Oct-11 00:00N 51°21' E 004°17'0 0.0
2017-Oct-10 23:30N 51°21' E 004°17'0 0.9
2017-Oct-10 22:59N 51°21' E 004°18'1 1.3
2017-Oct-10 22:29N 51°20' E 004°18'3 6.3
2017-Oct-10 22:00N 51°18' E 004°20'2 3.7
2017-Oct-10 21:31N 51°16' E 004°21'0 0.2
2017-Oct-10 21:00N 51°16' E 004°21'0 0.0
2017-Oct-10 20:30N 51°16' E 004°21'0 0.0
2017-Oct-10 20:00N 51°16' E 004°21'0 0.0
2017-Oct-10 19:30N 51°16' E 004°21'0 0.0
2017-Oct-10 19:00N 51°16' E 004°21'0 0.0
2017-Oct-10 18:30N 51°16' E 004°21'0 0.0
2017-Oct-10 18:00N 51°16' E 004°21'0 0.0
2017-Oct-10 17:30N 51°16' E 004°21'0 0.0
2017-Oct-10 17:00N 51°16' E 004°21'0 0.0
2017-Oct-10 16:30N 51°16' E 004°21'0 0.0
2017-Oct-10 16:00N 51°16' E 004°21'0 0.0
2017-Oct-10 15:30N 51°16' E 004°21'0 0.0
2017-Oct-10 15:00N 51°16' E 004°21'0 0.0
2017-Oct-10 14:00N 51°16' E 004°21'0 0.0
2017-Oct-10 13:24N 51°16' E 004°21'0 0.0
2017-Oct-10 13:00N 51°16' E 004°21'0 0.0
2017-Oct-10 12:30N 51°16' E 004°21'0 0.0
2017-Oct-10 12:00N 51°16' E 004°21'0 0.0
2017-Oct-10 11:30N 51°16' E 004°21'0 0.0
2017-Oct-10 11:00N 51°16' E 004°21'0 0.0
2017-Oct-10 10:30N 51°16' E 004°21'0 0.0
2017-Oct-10 10:00N 51°16' E 004°21'0 0.0
2017-Oct-10 09:30N 51°16' E 004°21'0 0.0
2017-Oct-10 09:00N 51°16' E 004°21'0 0.0
2017-Oct-10 08:30N 51°16' E 004°21'0 0.0
2017-Oct-10 08:00N 51°16' E 004°21'0 0.0
2017-Oct-10 07:30N 51°16' E 004°21'0 0.0
2017-Oct-10 07:00N 51°16' E 004°21'0 0.0
2017-Oct-10 06:30N 51°16' E 004°21'0 0.0
2017-Oct-10 06:00N 51°16' E 004°21'0 0.0
2017-Oct-10 05:30N 51°16' E 004°21'0 0.0
2017-Oct-10 05:00N 51°16' E 004°21'0 0.0
2017-Oct-10 04:30N 51°16' E 004°21'0 0.0
2017-Oct-10 04:00N 51°16' E 004°21'0 0.0
2017-Oct-10 03:30N 51°16' E 004°21'0 0.0
2017-Oct-10 03:00N 51°16' E 004°21'0 0.0
2017-Oct-10 02:30N 51°16' E 004°21'0 0.3
2017-Oct-10 02:00N 51°16' E 004°21'0 0.0
2017-Oct-10 01:30N 51°16' E 004°21'0 0.0
2017-Oct-10 01:00N 51°16' E 004°21'0 0.0
2017-Oct-10 00:30N 51°16' E 004°21'0 0.0
2017-Oct-10 00:00N 51°16' E 004°21'0 0.0
2017-Oct-09 23:30N 51°16' E 004°21'0 0.0
2017-Oct-09 23:00N 51°16' E 004°21'0 0.0
2017-Oct-09 22:30N 51°16' E 004°21'0 0.0
2017-Oct-09 22:00N 51°16' E 004°21'0 0.0
2017-Oct-09 21:30N 51°16' E 004°21'0 0.0
2017-Oct-09 21:00N 51°16' E 004°21'0 0.0
2017-Oct-09 20:30N 51°16' E 004°21'0 0.0
2017-Oct-09 20:00N 51°16' E 004°21'0 0.0
2017-Oct-09 19:24N 51°16' E 004°21'0 0.0
2017-Oct-09 19:00N 51°16' E 004°21'0 0.0
2017-Oct-09 18:30N 51°16' E 004°21'0 0.0
2017-Oct-09 18:00N 51°16' E 004°21'0 0.0
2017-Oct-09 17:30N 51°16' E 004°21'0 0.0
2017-Oct-09 16:53N 51°16' E 004°21'0 0.0
2017-Oct-09 16:29N 51°16' E 004°21'0 0.0
2017-Oct-09 15:59N 51°16' E 004°21'0 0.0
2017-Oct-09 15:17N 51°16' E 004°21'0 0.0
2017-Oct-09 14:59N 51°16' E 004°21'0 0.0
2017-Oct-09 14:29N 51°16' E 004°21'0 0.0
2017-Oct-09 13:59N 51°16' E 004°21'0 0.0
2017-Oct-09 13:29N 51°16' E 004°21'0 0.0
2017-Oct-09 12:59N 51°16' E 004°21'0 0.0
2017-Oct-09 12:29N 51°16' E 004°21'0 0.0
2017-Oct-09 11:59N 51°16' E 004°21'0 0.0
2017-Oct-09 11:29N 51°16' E 004°21'0 0.0
2017-Oct-09 10:59N 51°16' E 004°21'0 0.0
2017-Oct-09 10:29N 51°16' E 004°21'0 0.0
2017-Oct-09 09:59N 51°16' E 004°21'0 0.0
2017-Oct-09 09:29N 51°16' E 004°21'0 0.0
2017-Oct-09 08:59N 51°16' E 004°21'0 0.0
2017-Oct-09 08:29N 51°16' E 004°21'0 0.0
2017-Oct-09 07:59N 51°16' E 004°21'0 0.0
2017-Oct-09 07:23N 51°16' E 004°21'0 0.0
2017-Oct-09 06:59N 51°16' E 004°21'0 0.0
2017-Oct-09 06:29N 51°16' E 004°21'0 0.0
2017-Oct-09 05:59N 51°16' E 004°21'0 0.0
2017-Oct-09 05:23N 51°16' E 004°21'0 0.0
2017-Oct-09 04:53N 51°16' E 004°21'0 0.0
2017-Oct-09 04:29N 51°16' E 004°21'0 0.0
2017-Oct-09 03:59N 51°16' E 004°21'0 0.0
2017-Oct-09 03:29N 51°16' E 004°21'0 0.0
2017-Oct-09 02:53N 51°16' E 004°21'0 0.0
2017-Oct-09 02:29N 51°16' E 004°21'0 0.0
2017-Oct-09 01:59N 51°16' E 004°21'0 0.7
2017-Oct-09 01:30N 51°16' E 004°21'2 3.9
2017-Oct-09 01:00N 51°18' E 004°20'0 0.7
2017-Oct-09 00:30N 51°18' E 004°20'0 0.0
2017-Oct-09 00:00N 51°18' E 004°20'0 0.0
2017-Oct-08 23:30N 51°18' E 004°20'0 0.0
2017-Oct-08 23:00N 51°18' E 004°20'0 0.0
2017-Oct-08 22:30N 51°18' E 004°20'0 0.0
2017-Oct-08 21:54N 51°18' E 004°20'0 0.0
2017-Oct-08 21:30N 51°18' E 004°20'0 0.0
2017-Oct-08 21:00N 51°18' E 004°20'0 0.0
2017-Oct-08 20:30N 51°18' E 004°20'0 0.0
2017-Oct-08 20:00N 51°18' E 004°20'0 0.0
2017-Oct-08 19:30N 51°18' E 004°20'0 0.0
2017-Oct-08 19:00N 51°18' E 004°20'0 0.0
2017-Oct-08 18:30N 51°18' E 004°20'0 0.0
2017-Oct-08 18:00N 51°18' E 004°20'0 0.0
2017-Oct-08 17:30N 51°18' E 004°20'0 0.0
2017-Oct-08 17:00N 51°18' E 004°20'0 0.0
2017-Oct-08 16:30N 51°18' E 004°20'0 0.0
2017-Oct-08 15:54N 51°18' E 004°20'0 0.0
2017-Oct-08 15:30N 51°18' E 004°20'0 0.0
2017-Oct-08 15:00N 51°18' E 004°20'0 0.0
2017-Oct-08 14:30N 51°18' E 004°20'0 0.0
2017-Oct-08 14:00N 51°18' E 004°20'0 0.0
2017-Oct-08 13:30N 51°18' E 004°20'0 0.0
2017-Oct-08 13:00N 51°18' E 004°20'0 0.0
2017-Oct-08 12:30N 51°18' E 004°20'0 0.0
2017-Oct-08 12:00N 51°18' E 004°20'0 0.0
2017-Oct-08 11:24N 51°18' E 004°20'0 0.0
2017-Oct-08 11:00N 51°18' E 004°20'0 0.0
2017-Oct-08 10:30N 51°18' E 004°20'0 0.0
2017-Oct-08 10:00N 51°18' E 004°20'0 0.0
2017-Oct-08 09:30N 51°18' E 004°20'  
Track history (hours):
 
Tides and Currents Weather Stations Pressure Air Temp Water Temp Dewpoint Dewpoint Depression Visibility Wind Speed Wind Dir Waves Ship Positions

Ms Simon

Last reported at 2017-Oct-18 09:29 UTC. Time now 2017-Oct-18 09:41 UTC.
Position N 52°31' E 004°17'.

Length 175 m; draft 7.6 m.

Type: Tanker. MMSI: 636091485.

Date/timePositionNaut miles runAvg speedWind from/ knotsBaromVisibWave heightAir tempDewpointWater temp
2017-Oct-18 09:29N 52°31' E 004°17'0 0.0
2017-Oct-18 08:53N 52°31' E 004°17'0 0.1
2017-Oct-18 08:29N 52°31' E 004°17'0 0.0
2017-Oct-18 07:59N 52°31' E 004°17'0 0.0
2017-Oct-18 07:29N 52°31' E 004°17'0 0.0
2017-Oct-18 06:59N 52°31' E 004°17'0 0.1
2017-Oct-18 06:23N 52°31' E 004°17'0 0.3
2017-Oct-18 06:00N 52°32' E 004°17'0 0.7
2017-Oct-18 05:30N 52°32' E 004°17'4 7.6
2017-Oct-18 05:00N 52°29' E 004°13'  
2017-Oct-15 22:40N 52°37' E 002°52'0 0.0
2017-Oct-15 22:28N 52°37' E 002°52'0 0.0
2017-Oct-15 21:58N 52°37' E 002°52'0 0.0
2017-Oct-15 10:04N 52°37' E 002°52'0 2.2
2017-Oct-15 10:00N 52°37' E 002°52'  
2017-Oct-11 00:00N 51°21' E 004°17'0 0.0
2017-Oct-10 23:30N 51°21' E 004°17'0 0.9
2017-Oct-10 22:59N 51°21' E 004°18'1 1.3
2017-Oct-10 22:29N 51°20' E 004°18'3 6.3
2017-Oct-10 22:00N 51°18' E 004°20'2 3.7
2017-Oct-10 21:31N 51°16' E 004°21'0 0.2
2017-Oct-10 21:00N 51°16' E 004°21'0 0.0
2017-Oct-10 20:30N 51°16' E 004°21'0 0.0
2017-Oct-10 20:00N 51°16' E 004°21'0 0.0
2017-Oct-10 19:30N 51°16' E 004°21'0 0.0
2017-Oct-10 19:00N 51°16' E 004°21'0 0.0
2017-Oct-10 18:30N 51°16' E 004°21'0 0.0
2017-Oct-10 18:00N 51°16' E 004°21'0 0.0
2017-Oct-10 17:30N 51°16' E 004°21'0 0.0
2017-Oct-10 17:00N 51°16' E 004°21'0 0.0
2017-Oct-10 16:30N 51°16' E 004°21'0 0.0
2017-Oct-10 16:00N 51°16' E 004°21'0 0.0
2017-Oct-10 15:30N 51°16' E 004°21'0 0.0
2017-Oct-10 15:00N 51°16' E 004°21'0 0.0
2017-Oct-10 14:00N 51°16' E 004°21'0 0.0
2017-Oct-10 13:24N 51°16' E 004°21'0 0.0
2017-Oct-10 13:00N 51°16' E 004°21'0 0.0
2017-Oct-10 12:30N 51°16' E 004°21'0 0.0
2017-Oct-10 12:00N 51°16' E 004°21'0 0.0
2017-Oct-10 11:30N 51°16' E 004°21'0 0.0
2017-Oct-10 11:00N 51°16' E 004°21'0 0.0
2017-Oct-10 10:30N 51°16' E 004°21'0 0.0
2017-Oct-10 10:00N 51°16' E 004°21'0 0.0
2017-Oct-10 09:30N 51°16' E 004°21'0 0.0
2017-Oct-10 09:00N 51°16' E 004°21'0 0.0
2017-Oct-10 08:30N 51°16' E 004°21'0 0.0
2017-Oct-10 08:00N 51°16' E 004°21'0 0.0
2017-Oct-10 07:30N 51°16' E 004°21'0 0.0
2017-Oct-10 07:00N 51°16' E 004°21'0 0.0
2017-Oct-10 06:30N 51°16' E 004°21'0 0.0
2017-Oct-10 06:00N 51°16' E 004°21'0 0.0
2017-Oct-10 05:30N 51°16' E 004°21'0 0.0
2017-Oct-10 05:00N 51°16' E 004°21'0 0.0
2017-Oct-10 04:30N 51°16' E 004°21'0 0.0
2017-Oct-10 04:00N 51°16' E 004°21'0 0.0
2017-Oct-10 03:30N 51°16' E 004°21'0 0.0
2017-Oct-10 03:00N 51°16' E 004°21'0 0.0
2017-Oct-10 02:30N 51°16' E 004°21'0 0.3
2017-Oct-10 02:00N 51°16' E 004°21'0 0.0
2017-Oct-10 01:30N 51°16' E 004°21'0 0.0
2017-Oct-10 01:00N 51°16' E 004°21'0 0.0
2017-Oct-10 00:30N 51°16' E 004°21'0 0.0
2017-Oct-10 00:00N 51°16' E 004°21'0 0.0
2017-Oct-09 23:30N 51°16' E 004°21'0 0.0
2017-Oct-09 23:00N 51°16' E 004°21'0 0.0
2017-Oct-09 22:30N 51°16' E 004°21'0 0.0
2017-Oct-09 22:00N 51°16' E 004°21'0 0.0
2017-Oct-09 21:30N 51°16' E 004°21'0 0.0
2017-Oct-09 21:00N 51°16' E 004°21'0 0.0
2017-Oct-09 20:30N 51°16' E 004°21'0 0.0
2017-Oct-09 20:00N 51°16' E 004°21'0 0.0
2017-Oct-09 19:24N 51°16' E 004°21'0 0.0
2017-Oct-09 19:00N 51°16' E 004°21'0 0.0
2017-Oct-09 18:30N 51°16' E 004°21'0 0.0
2017-Oct-09 18:00N 51°16' E 004°21'0 0.0
2017-Oct-09 17:30N 51°16' E 004°21'0 0.0
2017-Oct-09 16:53N 51°16' E 004°21'0 0.0
2017-Oct-09 16:29N 51°16' E 004°21'0 0.0
2017-Oct-09 15:59N 51°16' E 004°21'0 0.0
2017-Oct-09 15:17N 51°16' E 004°21'0 0.0
2017-Oct-09 14:59N 51°16' E 004°21'0 0.0
2017-Oct-09 14:29N 51°16' E 004°21'0 0.0
2017-Oct-09 13:59N 51°16' E 004°21'0 0.0
2017-Oct-09 13:29N 51°16' E 004°21'0 0.0
2017-Oct-09 12:59N 51°16' E 004°21'0 0.0
2017-Oct-09 12:29N 51°16' E 004°21'0 0.0
2017-Oct-09 11:59N 51°16' E 004°21'0 0.0
2017-Oct-09 11:29N 51°16' E 004°21'0 0.0
2017-Oct-09 10:59N 51°16' E 004°21'0 0.0
2017-Oct-09 10:29N 51°16' E 004°21'0 0.0
2017-Oct-09 09:59N 51°16' E 004°21'0 0.0
2017-Oct-09 09:29N 51°16' E 004°21'0 0.0
2017-Oct-09 08:59N 51°16' E 004°21'0 0.0
2017-Oct-09 08:29N 51°16' E 004°21'0 0.0
2017-Oct-09 07:59N 51°16' E 004°21'0 0.0
2017-Oct-09 07:23N 51°16' E 004°21'0 0.0
2017-Oct-09 06:59N 51°16' E 004°21'0 0.0
2017-Oct-09 06:29N 51°16' E 004°21'0 0.0
2017-Oct-09 05:59N 51°16' E 004°21'0 0.0
2017-Oct-09 05:23N 51°16' E 004°21'0 0.0
2017-Oct-09 04:53N 51°16' E 004°21'0 0.0
2017-Oct-09 04:29N 51°16' E 004°21'0 0.0
2017-Oct-09 03:59N 51°16' E 004°21'0 0.0
2017-Oct-09 03:29N 51°16' E 004°21'0 0.0
2017-Oct-09 02:53N 51°16' E 004°21'0 0.0
2017-Oct-09 02:29N 51°16' E 004°21'0 0.0
2017-Oct-09 01:59N 51°16' E 004°21'0 0.7
2017-Oct-09 01:30N 51°16' E 004°21'2 3.9
2017-Oct-09 01:00N 51°18' E 004°20'0 0.7
2017-Oct-09 00:30N 51°18' E 004°20'0 0.0
2017-Oct-09 00:00N 51°18' E 004°20'0 0.0
2017-Oct-08 23:30N 51°18' E 004°20'0 0.0
2017-Oct-08 23:00N 51°18' E 004°20'0 0.0
2017-Oct-08 22:30N 51°18' E 004°20'0 0.0
2017-Oct-08 21:54N 51°18' E 004°20'0 0.0
2017-Oct-08 21:30N 51°18' E 004°20'0 0.0
2017-Oct-08 21:00N 51°18' E 004°20'0 0.0
2017-Oct-08 20:30N 51°18' E 004°20'0 0.0
2017-Oct-08 20:00N 51°18' E 004°20'0 0.0
2017-Oct-08 19:30N 51°18' E 004°20'0 0.0
2017-Oct-08 19:00N 51°18' E 004°20'0 0.0
2017-Oct-08 18:30N 51°18' E 004°20'0 0.0
2017-Oct-08 18:00N 51°18' E 004°20'0 0.0
2017-Oct-08 17:30N 51°18' E 004°20'0 0.0
2017-Oct-08 17:00N 51°18' E 004°20'0 0.0
2017-Oct-08 16:30N 51°18' E 004°20'0 0.0
2017-Oct-08 15:54N 51°18' E 004°20'0 0.0
2017-Oct-08 15:30N 51°18' E 004°20'0 0.0
2017-Oct-08 15:00N 51°18' E 004°20'0 0.0
2017-Oct-08 14:30N 51°18' E 004°20'0 0.0
2017-Oct-08 14:00N 51°18' E 004°20'0 0.0
2017-Oct-08 13:30N 51°18' E 004°20'0 0.0
2017-Oct-08 13:00N 51°18' E 004°20'0 0.0
2017-Oct-08 12:30N 51°18' E 004°20'0 0.0
2017-Oct-08 12:00N 51°18' E 004°20'0 0.0
2017-Oct-08 11:24N 51°18' E 004°20'0 0.0
2017-Oct-08 11:00N 51°18' E 004°20'0 0.0
2017-Oct-08 10:30N 51°18' E 004°20'0 0.0
2017-Oct-08 10:00N 51°18' E 004°20'0 0.0
2017-Oct-08 09:30N 51°18' E 004°20'  

Dump ship's entire track history